sensor_id;sensor_type;location;lat;lon;timestamp;pressure;altitude;pressure_sealevel;temperature;humidity
68456;BME280;55437;55.046;38.838;2022-11-23T00:01:19;98941.22;;;2.73;79.43
68456;BME280;55437;55.046;38.838;2022-11-23T00:03:48;98928.56;;;2.71;79.03
68456;BME280;55437;55.046;38.838;2022-11-23T00:06:15;98933.63;;;2.71;79.28
68456;BME280;55437;55.046;38.838;2022-11-23T00:08:41;98928.56;;;2.71;79.22
68456;BME280;55437;55.046;38.838;2022-11-23T00:11:07;98922.59;;;2.77;79.03
68456;BME280;55437;55.046;38.838;2022-11-23T00:13:33;98919.22;;;2.75;79.01
68456;BME280;55437;55.046;38.838;2022-11-23T00:16:03;98918.47;;;2.68;79.26
68456;BME280;55437;55.046;38.838;2022-11-23T00:18:29;98913.28;;;2.77;78.85
68456;BME280;55437;55.046;38.838;2022-11-23T00:20:55;98913.38;;;2.71;78.88
68456;BME280;55437;55.046;38.838;2022-11-23T00:23:21;98905.81;;;2.68;78.83
68456;BME280;55437;55.046;38.838;2022-11-23T00:25:47;98901.59;;;2.67;79.18
68456;BME280;55437;55.046;38.838;2022-11-23T00:28:12;98905.69;;;2.77;79.15
68456;BME280;55437;55.046;38.838;2022-11-23T00:30:38;98905.06;;;2.63;79.37
68456;BME280;55437;55.046;38.838;2022-11-23T00:33:04;98905.06;;;2.63;79.21
68456;BME280;55437;55.046;38.838;2022-11-23T00:35:30;98904.22;;;2.61;79.50
68456;BME280;55437;55.046;38.838;2022-11-23T00:37:55;98900.06;;;2.57;79.38
68456;BME280;55437;55.046;38.838;2022-11-23T00:40:21;98896.84;;;2.47;79.52
68456;BME280;55437;55.046;38.838;2022-11-23T00:42:47;98903.44;;;2.58;79.71
68456;BME280;55437;55.046;38.838;2022-11-23T00:45:12;98901.56;;;2.69;79.20
68456;BME280;55437;55.046;38.838;2022-11-23T00:47:38;98907.47;;;2.71;79.53
68456;BME280;55437;55.046;38.838;2022-11-23T00:50:04;98899.81;;;2.74;79.44
68456;BME280;55437;55.046;38.838;2022-11-23T00:52:30;98900.63;;;2.77;78.74
68456;BME280;55437;55.046;38.838;2022-11-23T00:54:56;98887.94;;;2.77;78.90
68456;BME280;55437;55.046;38.838;2022-11-23T00:57:21;98881.25;;;2.73;79.10
68456;BME280;55437;55.046;38.838;2022-11-23T00:59:47;98886.38;;;2.69;79.36
68456;BME280;55437;55.046;38.838;2022-11-23T01:02:13;98891.22;;;2.82;79.14
68456;BME280;55437;55.046;38.838;2022-11-23T01:04:39;98891.34;;;2.76;78.91
68456;BME280;55437;55.046;38.838;2022-11-23T01:07:04;98896.44;;;2.75;79.05
68456;BME280;55437;55.046;38.838;2022-11-23T01:09:31;98893.94;;;2.72;79.16
68456;BME280;55437;55.046;38.838;2022-11-23T01:11:56;98894.84;;;2.66;79.31
68456;BME280;55437;55.046;38.838;2022-11-23T01:14:23;98899.03;;;2.69;79.35
68456;BME280;55437;55.046;38.838;2022-11-23T01:16:49;98903.22;;;2.71;79.15
68456;BME280;55437;55.046;38.838;2022-11-23T01:19:18;98899.72;;;2.78;78.76
68456;BME280;55437;55.046;38.838;2022-11-23T01:21:47;98896.28;;;2.82;78.98
68456;BME280;55437;55.046;38.838;2022-11-23T01:24:15;98901.38;;;2.81;78.98
68456;BME280;55437;55.046;38.838;2022-11-23T01:26:42;98904.78;;;2.78;79.04
68456;BME280;55437;55.046;38.838;2022-11-23T01:29:09;98901.28;;;2.88;78.95
68456;BME280;55437;55.046;38.838;2022-11-23T01:31:37;98898.09;;;2.76;78.89
68456;BME280;55437;55.046;38.838;2022-11-23T01:34:04;98898.16;;;2.71;78.98
68456;BME280;55437;55.046;38.838;2022-11-23T01:36:33;98892.19;;;2.75;78.86
68456;BME280;55437;55.046;38.838;2022-11-23T01:39:02;98898.00;;;2.80;78.78
68456;BME280;55437;55.046;38.838;2022-11-23T01:41:30;98894.63;;;2.80;78.64
68456;BME280;55437;55.046;38.838;2022-11-23T01:43:57;98897.09;;;2.84;78.62
68456;BME280;55437;55.046;38.838;2022-11-23T01:46:23;98892.75;;;2.91;78.38
68456;BME280;55437;55.046;38.838;2022-11-23T01:51:43;98899.47;;;2.95;78.45
68456;BME280;55437;55.046;38.838;2022-11-23T01:54:16;98897.81;;;2.93;78.43
68456;BME280;55437;55.046;38.838;2022-11-23T01:56:48;98885.97;;;2.93;78.42
68456;BME280;55437;55.046;38.838;2022-11-23T01:59:16;98892.75;;;2.93;78.37
68456;BME280;55437;55.046;38.838;2022-11-23T02:01:44;98902.03;;;2.94;77.85
68456;BME280;55437;55.046;38.838;2022-11-23T02:04:13;98896.22;;;2.87;78.50
68456;BME280;55437;55.046;38.838;2022-11-23T02:06:45;98897.94;;;2.86;78.50
68456;BME280;55437;55.046;38.838;2022-11-23T02:09:13;98902.13;;;2.87;78.50
68456;BME280;55437;55.046;38.838;2022-11-23T02:11:40;98897.09;;;2.84;78.27
68456;BME280;55437;55.046;38.838;2022-11-23T02:14:06;98903.06;;;2.80;78.69
68456;BME280;55437;55.046;38.838;2022-11-23T02:16:33;98902.97;;;2.88;78.59
68456;BME280;55437;55.046;38.838;2022-11-23T02:19:00;98888.59;;;2.88;78.54
68456;BME280;55437;55.046;38.838;2022-11-23T02:21:26;98892.09;;;2.80;78.65
68456;BME280;55437;55.046;38.838;2022-11-23T02:24:09;98895.53;;;2.77;78.77
68456;BME280;55437;55.046;38.838;2022-11-23T02:26:37;98890.59;;;2.68;78.81
68456;BME280;55437;55.046;38.838;2022-11-23T02:29:36;98893.06;;;2.74;79.02
68456;BME280;55437;55.046;38.838;2022-11-23T02:31:59;98892.41;;;2.62;79.21
68456;BME280;55437;55.046;38.838;2022-11-23T02:34:25;98885.63;;;2.62;78.96
68456;BME280;55437;55.046;38.838;2022-11-23T02:36:54;98881.44;;;2.61;78.94
68456;BME280;55437;55.046;38.838;2022-11-23T02:39:27;98885.03;;;2.46;79.54
68456;BME280;55437;55.046;38.838;2022-11-23T02:41:54;98875.66;;;2.51;79.44
68456;BME280;55437;55.046;38.838;2022-11-23T02:44:45;98864.69;;;2.52;79.58
68456;BME280;55437;55.046;38.838;2022-11-23T02:47:13;98868.13;;;2.47;79.71
68456;BME280;55437;55.046;38.838;2022-11-23T02:49:40;98868.03;;;2.53;79.47
68456;BME280;55437;55.046;38.838;2022-11-23T02:52:08;98867.06;;;2.62;79.21
68456;BME280;55437;55.046;38.838;2022-11-23T02:54:34;98866.13;;;2.67;79.15
68456;BME280;55437;55.046;38.838;2022-11-23T02:57:00;98860.16;;;2.71;79.23
68456;BME280;55437;55.046;38.838;2022-11-23T02:59:26;98858.41;;;2.75;78.71
68456;BME280;55437;55.046;38.838;2022-11-23T03:01:52;98855.06;;;2.71;79.12
68456;BME280;55437;55.046;38.838;2022-11-23T03:04:19;98860.97;;;2.72;78.83
68456;BME280;55437;55.046;38.838;2022-11-23T03:06:45;98857.66;;;2.67;79.17
68456;BME280;55437;55.046;38.838;2022-11-23T03:09:11;98858.34;;;2.78;79.22
68456;BME280;55437;55.046;38.838;2022-11-23T03:11:37;98866.25;;;2.58;79.48
68456;BME280;55437;55.046;38.838;2022-11-23T03:14:03;98866.22;;;2.61;79.58
68456;BME280;55437;55.046;38.838;2022-11-23T03:16:35;98853.59;;;2.58;79.46
68456;BME280;55437;55.046;38.838;2022-11-23T03:19:01;98852.91;;;2.48;79.80
68456;BME280;55437;55.046;38.838;2022-11-23T03:21:27;98862.84;;;2.62;79.46
68456;BME280;55437;55.046;38.838;2022-11-23T03:23:54;98866.94;;;2.68;79.67
68456;BME280;55437;55.046;38.838;2022-11-23T03:26:20;98857.59;;;2.71;78.98
68456;BME280;55437;55.046;38.838;2022-11-23T03:28:56;98863.66;;;2.64;79.65
68456;BME280;55437;55.046;38.838;2022-11-23T03:31:25;98862.72;;;2.68;79.27
68456;BME280;55437;55.046;38.838;2022-11-23T03:33:51;98861.31;;;2.52;79.66
68456;BME280;55437;55.046;38.838;2022-11-23T03:36:17;98857.91;;;2.53;79.88
68456;BME280;55437;55.046;38.838;2022-11-23T03:38:45;98862.00;;;2.60;79.63
68456;BME280;55437;55.046;38.838;2022-11-23T03:41:26;98861.97;;;2.63;79.53
68456;BME280;55437;55.046;38.838;2022-11-23T03:43:52;98857.59;;;2.71;79.09
68456;BME280;55437;55.046;38.838;2022-11-23T03:46:18;98857.59;;;2.71;79.58
68456;BME280;55437;55.046;38.838;2022-11-23T03:48:44;98859.88;;;2.88;78.86
68456;BME280;55437;55.046;38.838;2022-11-23T03:51:10;98860.53;;;2.99;78.34
68456;BME280;55437;55.046;38.838;2022-11-23T03:53:36;98851.41;;;2.89;78.40
68456;BME280;55437;55.046;38.838;2022-11-23T03:56:02;98856.41;;;2.92;78.68
68456;BME280;55437;55.046;38.838;2022-11-23T03:58:32;98864.84;;;2.93;78.62
68456;BME280;55437;55.046;38.838;2022-11-23T04:01:01;98850.47;;;2.93;78.57
68456;BME280;55437;55.046;38.838;2022-11-23T04:03:27;98851.25;;;2.98;78.34
68456;BME280;55437;55.046;38.838;2022-11-23T04:06:09;98856.50;;;2.87;78.61
68456;BME280;55437;55.046;38.838;2022-11-23T04:08:57;98848.06;;;2.87;78.64
68456;BME280;55437;55.046;38.838;2022-11-23T04:11:37;98853.13;;;2.87;78.57
68456;BME280;55437;55.046;38.838;2022-11-23T04:14:02;98850.72;;;2.79;78.65
68456;BME280;55437;55.046;38.838;2022-11-23T04:16:28;98842.47;;;2.67;78.99
68456;BME280;55437;55.046;38.838;2022-11-23T04:18:54;98849.38;;;2.57;79.42
68456;BME280;55437;55.046;38.838;2022-11-23T04:21:20;98835.72;;;2.66;79.24
68456;BME280;55437;55.046;38.838;2022-11-23T04:23:46;98841.03;;;2.52;79.71
68456;BME280;55437;55.046;38.838;2022-11-23T04:26:13;98838.38;;;2.60;79.51
68456;BME280;55437;55.046;38.838;2022-11-23T04:28:42;98839.16;;;2.65;79.47
68456;BME280;55437;55.046;38.838;2022-11-23T04:31:08;98850.16;;;2.62;79.29
68456;BME280;55437;55.046;38.838;2022-11-23T04:33:44;98864.28;;;2.77;79.21
68456;BME280;55437;55.046;38.838;2022-11-23T04:36:12;98860.88;;;2.78;79.06
68456;BME280;55437;55.046;38.838;2022-11-23T04:38:38;98855.75;;;2.81;78.72
68456;BME280;55437;55.046;38.838;2022-11-23T04:41:04;98855.13;;;2.68;79.13
68456;BME280;55437;55.046;38.838;2022-11-23T04:43:30;98855.28;;;2.59;79.33
68456;BME280;55437;55.046;38.838;2022-11-23T04:45:56;98851.91;;;2.59;79.58
68456;BME280;55437;55.046;38.838;2022-11-23T04:48:27;98856.06;;;2.63;79.58
68456;BME280;55437;55.046;38.838;2022-11-23T04:50:54;98846.69;;;2.66;79.51
68456;BME280;55437;55.046;38.838;2022-11-23T04:53:26;98848.41;;;2.66;79.15
68456;BME280;55437;55.046;38.838;2022-11-23T04:55:52;98846.81;;;2.60;79.40
68456;BME280;55437;55.046;38.838;2022-11-23T04:58:18;98850.13;;;2.64;79.34
68456;BME280;55437;55.046;38.838;2022-11-23T05:00:48;98858.50;;;2.69;79.12
68456;BME280;55437;55.046;38.838;2022-11-23T05:03:15;98854.34;;;2.65;79.63
68456;BME280;55437;55.046;38.838;2022-11-23T05:05:42;98856.06;;;2.63;79.51
68456;BME280;55437;55.046;38.838;2022-11-23T05:08:08;98864.41;;;2.69;79.45
68456;BME280;55437;55.046;38.838;2022-11-23T05:10:47;98857.53;;;2.77;79.12
68456;BME280;55437;55.046;38.838;2022-11-23T05:13:13;98856.63;;;2.80;79.14
68456;BME280;55437;55.046;38.838;2022-11-23T05:15:39;98860.81;;;2.81;78.77
68456;BME280;55437;55.046;38.838;2022-11-23T05:18:06;98866.03;;;2.73;79.23
68456;BME280;55437;55.046;38.838;2022-11-23T05:20:34;98880.34;;;2.76;78.92
68456;BME280;55437;55.046;38.838;2022-11-23T05:22:59;98875.19;;;2.80;78.96
68456;BME280;55437;55.046;38.838;2022-11-23T05:25:27;98873.50;;;2.81;78.78
68456;BME280;55437;55.046;38.838;2022-11-23T05:28:01;98868.31;;;2.88;78.91
68456;BME280;55437;55.046;38.838;2022-11-23T05:30:28;98870.75;;;2.93;78.89
68456;BME280;55437;55.046;38.838;2022-11-23T05:32:59;98874.25;;;2.87;78.86
68456;BME280;55437;55.046;38.838;2022-11-23T05:35:25;98880.34;;;2.77;78.93
68456;BME280;55437;55.046;38.838;2022-11-23T05:37:51;98876.13;;;2.76;79.01
68456;BME280;55437;55.046;38.838;2022-11-23T05:40:17;98874.34;;;2.81;79.04
68456;BME280;55437;55.046;38.838;2022-11-23T05:42:42;98877.63;;;2.88;79.05
68456;BME280;55437;55.046;38.838;2022-11-23T05:45:16;98880.03;;;2.96;78.64
68456;BME280;55437;55.046;38.838;2022-11-23T05:47:52;98881.72;;;2.95;78.52
68456;BME280;55437;55.046;38.838;2022-11-23T05:50:28;98884.22;;;2.97;78.54
68456;BME280;55437;55.046;38.838;2022-11-23T05:53:12;98871.56;;;2.97;78.45
68456;BME280;55437;55.046;38.838;2022-11-23T05:55:39;98876.66;;;2.95;78.51
68456;BME280;55437;55.046;38.838;2022-11-23T05:58:06;98873.28;;;2.93;78.58
68456;BME280;55437;55.046;38.838;2022-11-23T06:00:34;98874.06;;;3.00;78.52
68456;BME280;55437;55.046;38.838;2022-11-23T06:03:03;98873.13;;;3.02;78.38
68456;BME280;55437;55.046;38.838;2022-11-23T06:05:30;98873.25;;;2.96;78.26
68456;BME280;55437;55.046;38.838;2022-11-23T06:07:56;98869.00;;;2.98;78.24
68456;BME280;55437;55.046;38.838;2022-11-23T06:10:25;98868.06;;;3.02;78.24
68456;BME280;55437;55.046;38.838;2022-11-23T06:12:51;98863.97;;;2.95;78.64
68456;BME280;55437;55.046;38.838;2022-11-23T06:15:19;98868.13;;;2.99;78.19
68456;BME280;55437;55.046;38.838;2022-11-23T06:17:46;98873.13;;;3.04;78.15
68456;BME280;55437;55.046;38.838;2022-11-23T06:20:16;98874.81;;;3.03;78.24
68456;BME280;55437;55.046;38.838;2022-11-23T06:22:53;98873.22;;;2.98;78.31
68456;BME280;55437;55.046;38.838;2022-11-23T06:25:21;98883.25;;;3.04;78.21
68456;BME280;55437;55.046;38.838;2022-11-23T06:28:09;98874.81;;;3.03;78.17
68456;BME280;55437;55.046;38.838;2022-11-23T06:30:42;98870.72;;;2.96;78.21
68456;BME280;55437;55.046;38.838;2022-11-23T06:33:08;98877.63;;;2.88;78.71
68456;BME280;55437;55.046;38.838;2022-11-23T06:35:51;98870.81;;;2.90;78.50
68456;BME280;55437;55.046;38.838;2022-11-23T06:38:17;98874.13;;;2.94;78.52
68456;BME280;55437;55.046;38.838;2022-11-23T06:40:43;98866.56;;;2.90;78.38
68456;BME280;55437;55.046;38.838;2022-11-23T06:43:09;98873.28;;;2.95;78.43
68456;BME280;55437;55.046;38.838;2022-11-23T06:45:41;98870.03;;;2.88;78.39
68456;BME280;55437;55.046;38.838;2022-11-23T06:48:10;98866.66;;;2.87;78.28
68456;BME280;55437;55.046;38.838;2022-11-23T06:50:41;98869.22;;;2.84;78.53
68456;BME280;55437;55.046;38.838;2022-11-23T06:53:08;98875.09;;;2.86;78.71
68456;BME280;55437;55.046;38.838;2022-11-23T06:55:44;98870.09;;;2.83;78.46
68456;BME280;55437;55.046;38.838;2022-11-23T06:58:13;98871.84;;;2.78;78.71
68456;BME280;55437;55.046;38.838;2022-11-23T07:00:39;98866.81;;;2.77;78.70
68456;BME280;55437;55.046;38.838;2022-11-23T07:03:09;98876.06;;;2.78;78.92
68456;BME280;55437;55.046;38.838;2022-11-23T07:05:41;98881.00;;;2.88;78.76
68456;BME280;55437;55.046;38.838;2022-11-23T07:08:07;98881.91;;;2.84;78.44
68456;BME280;55437;55.046;38.838;2022-11-23T07:10:34;98878.38;;;2.93;78.31
68456;BME280;55437;55.046;38.838;2022-11-23T07:13:04;98878.34;;;2.95;78.16
68456;BME280;55437;55.046;38.838;2022-11-23T07:15:31;98878.50;;;2.85;78.30
68456;BME280;55437;55.046;38.838;2022-11-23T07:17:58;98881.84;;;2.87;78.32
68456;BME280;55437;55.046;38.838;2022-11-23T07:20:24;98886.00;;;2.92;78.64
68456;BME280;55437;55.046;38.838;2022-11-23T07:23:05;98885.00;;;3.02;78.25
68456;BME280;55437;55.046;38.838;2022-11-23T07:25:33;98889.31;;;2.97;78.18
68456;BME280;55437;55.046;38.838;2022-11-23T07:28:00;98889.25;;;3.00;78.28
68456;BME280;55437;55.046;38.838;2022-11-23T07:30:28;98895.41;;;2.86;78.33
68456;BME280;55437;55.046;38.838;2022-11-23T07:32:58;98901.22;;;2.90;78.56
68456;BME280;55437;55.046;38.838;2022-11-23T07:35:24;98895.34;;;2.89;78.46
68456;BME280;55437;55.046;38.838;2022-11-23T07:37:50;98898.66;;;2.93;78.30
68456;BME280;55437;55.046;38.838;2022-11-23T07:40:16;98890.13;;;2.99;78.15
68456;BME280;55437;55.046;38.838;2022-11-23T07:42:42;98899.31;;;3.04;78.01
68456;BME280;55437;55.046;38.838;2022-11-23T07:45:09;98896.84;;;3.01;77.87
68456;BME280;55437;55.046;38.838;2022-11-23T07:47:37;98893.47;;;3.01;77.84
68456;BME280;55437;55.046;38.838;2022-11-23T07:50:08;98900.25;;;3.00;78.12
68456;BME280;55437;55.046;38.838;2022-11-23T07:52:35;98895.28;;;2.93;78.16
68456;BME280;55437;55.046;38.838;2022-11-23T07:55:02;98896.06;;;2.96;78.15
68456;BME280;55437;55.046;38.838;2022-11-23T07:57:28;98890.16;;;2.97;78.06
68456;BME280;55437;55.046;38.838;2022-11-23T07:59:54;98900.28;;;2.97;78.16
68456;BME280;55437;55.046;38.838;2022-11-23T08:02:20;98896.88;;;3.00;77.88
68456;BME280;55437;55.046;38.838;2022-11-23T08:04:46;98904.69;;;2.87;78.02
68456;BME280;55437;55.046;38.838;2022-11-23T08:07:12;98899.53;;;2.90;78.13
68456;BME280;55437;55.046;38.838;2022-11-23T08:09:38;98893.63;;;2.90;78.40
68456;BME280;55437;55.046;38.838;2022-11-23T08:12:04;98893.56;;;2.95;78.01
68456;BME280;55437;55.046;38.838;2022-11-23T08:14:30;98901.91;;;3.01;78.05
68456;BME280;55437;55.046;38.838;2022-11-23T08:16:56;98901.22;;;2.90;78.07
68456;BME280;55437;55.046;38.838;2022-11-23T08:19:22;98896.06;;;2.98;78.28
68456;BME280;55437;55.046;38.838;2022-11-23T08:21:47;98897.81;;;2.93;78.08
68456;BME280;55437;55.046;38.838;2022-11-23T08:24:13;98898.81;;;2.84;78.54
68456;BME280;55437;55.046;38.838;2022-11-23T08:26:39;98900.53;;;2.82;78.69
68456;BME280;55437;55.046;38.838;2022-11-23T08:29:05;98900.34;;;2.93;78.40
68456;BME280;55437;55.046;38.838;2022-11-23T08:31:31;98901.97;;;2.98;78.14
68456;BME280;55437;55.046;38.838;2022-11-23T08:33:57;98898.47;;;3.04;78.06
68456;BME280;55437;55.046;38.838;2022-11-23T08:36:23;98899.50;;;2.94;78.31
68456;BME280;55437;55.046;38.838;2022-11-23T08:38:49;98908.84;;;2.90;78.17
68456;BME280;55437;55.046;38.838;2022-11-23T08:41:18;98912.97;;;2.96;78.36
68456;BME280;55437;55.046;38.838;2022-11-23T08:43:51;98911.97;;;3.06;78.06
68456;BME280;55437;55.046;38.838;2022-11-23T08:46:17;98912.00;;;3.04;78.17
68456;BME280;55437;55.046;38.838;2022-11-23T08:48:44;98911.16;;;3.04;78.18
68456;BME280;55437;55.046;38.838;2022-11-23T08:51:10;98906.94;;;3.03;78.42
68456;BME280;55437;55.046;38.838;2022-11-23T08:53:36;98904.34;;;3.06;78.36
68456;BME280;55437;55.046;38.838;2022-11-23T08:56:03;98903.63;;;3.01;78.41
68456;BME280;55437;55.046;38.838;2022-11-23T08:58:30;98902.84;;;2.96;78.41
68456;BME280;55437;55.046;38.838;2022-11-23T09:00:56;98912.16;;;2.94;78.57
68456;BME280;55437;55.046;38.838;2022-11-23T09:03:22;98910.31;;;3.03;78.15
68456;BME280;55437;55.046;38.838;2022-11-23T09:05:48;98918.84;;;2.99;78.28
68456;BME280;55437;55.046;38.838;2022-11-23T09:08:16;98913.50;;;3.14;77.91
68456;BME280;55437;55.046;38.838;2022-11-23T09:10:42;98907.63;;;3.14;78.03
68456;BME280;55437;55.046;38.838;2022-11-23T09:13:07;98908.31;;;3.22;77.74
68456;BME280;55437;55.046;38.838;2022-11-23T09:15:34;98912.66;;;3.15;77.95
68456;BME280;55437;55.046;38.838;2022-11-23T09:18:00;98906.66;;;3.19;77.50
68456;BME280;55437;55.046;38.838;2022-11-23T09:20:25;98912.56;;;3.21;77.67
68456;BME280;55437;55.046;38.838;2022-11-23T09:22:52;98917.66;;;3.20;77.54
68456;BME280;55437;55.046;38.838;2022-11-23T09:25:19;98913.56;;;3.13;77.78
68456;BME280;55437;55.046;38.838;2022-11-23T09:27:46;98911.91;;;3.09;77.80
68456;BME280;55437;55.046;38.838;2022-11-23T09:30:12;98913.47;;;3.17;77.55
68456;BME280;55437;55.046;38.838;2022-11-23T09:32:38;98916.09;;;3.13;77.58
68456;BME280;55437;55.046;38.838;2022-11-23T09:35:04;98915.28;;;3.09;77.83
68456;BME280;55437;55.046;38.838;2022-11-23T09:37:30;98917.91;;;3.05;77.94
68456;BME280;55437;55.046;38.838;2022-11-23T09:39:56;98914.50;;;3.06;77.76
68456;BME280;55437;55.046;38.838;2022-11-23T09:50:59;98924.41;;;3.21;77.56
68456;BME280;55437;55.046;38.838;2022-11-23T09:53:41;98915.06;;;3.23;77.32
68456;BME280;55437;55.046;38.838;2022-11-23T09:56:18;98915.81;;;3.26;77.17
68456;BME280;55437;55.046;38.838;2022-11-23T09:58:45;98923.56;;;3.20;77.41
68456;BME280;55437;55.046;38.838;2022-11-23T10:01:15;98919.31;;;3.22;77.31
68456;BME280;55437;55.046;38.838;2022-11-23T10:03:43;98914.28;;;3.18;77.50
68456;BME280;55437;55.046;38.838;2022-11-23T10:14:29;98917.59;;;3.23;77.27
68456;BME280;55437;55.046;38.838;2022-11-23T10:22:26;98903.34;;;3.14;77.11
68456;BME280;55437;55.046;38.838;2022-11-23T10:24:55;98910.84;;;3.23;76.99
68456;BME280;55437;55.046;38.838;2022-11-23T10:27:23;98901.44;;;3.27;77.11
68456;BME280;55437;55.046;38.838;2022-11-23T10:29:49;98913.34;;;3.25;77.04
68456;BME280;55437;55.046;38.838;2022-11-23T10:32:37;98914.09;;;3.30;76.80
68456;BME280;55437;55.046;38.838;2022-11-23T10:35:14;98906.59;;;3.24;76.97
68456;BME280;55437;55.046;38.838;2022-11-23T10:37:41;98917.53;;;3.26;76.85
68456;BME280;55437;55.046;38.838;2022-11-23T10:40:26;98916.75;;;3.24;76.98
68456;BME280;55437;55.046;38.838;2022-11-23T10:42:58;98919.25;;;3.25;76.56
68456;BME280;55437;55.046;38.838;2022-11-23T10:45:27;98916.00;;;3.17;77.00
68456;BME280;55437;55.046;38.838;2022-11-23T10:47:55;98919.38;;;3.16;77.17
68456;BME280;55437;55.046;38.838;2022-11-23T10:52:55;98922.03;;;3.10;77.27
68456;BME280;55437;55.046;38.838;2022-11-23T10:55:25;98923.56;;;3.20;77.10
68456;BME280;55437;55.046;38.838;2022-11-23T10:57:51;98925.75;;;3.39;76.80
68456;BME280;55437;55.046;38.838;2022-11-23T11:00:19;98927.41;;;3.41;76.48
68456;BME280;55437;55.046;38.838;2022-11-23T11:02:53;98922.50;;;3.34;76.71
68456;BME280;55437;55.046;38.838;2022-11-23T11:05:32;98921.66;;;3.33;76.46
68456;BME280;55437;55.046;38.838;2022-11-23T11:08:02;98925.03;;;3.34;76.50
68456;BME280;55437;55.046;38.838;2022-11-23T11:10:43;98926.78;;;3.29;76.71
68456;BME280;55437;55.046;38.838;2022-11-23T11:15:57;98931.19;;;3.19;77.07
68456;BME280;55437;55.046;38.838;2022-11-23T11:18:29;98931.06;;;3.26;76.67
68456;BME280;55437;55.046;38.838;2022-11-23T11:21:04;98931.88;;;3.29;76.74
68456;BME280;55437;55.046;38.838;2022-11-23T11:23:32;98935.19;;;3.32;76.63
68456;BME280;55437;55.046;38.838;2022-11-23T11:26:09;98936.19;;;3.25;76.48
68456;BME280;55437;55.046;38.838;2022-11-23T11:28:41;98941.19;;;3.26;76.48
68456;BME280;55437;55.046;38.838;2022-11-23T11:33:58;98946.22;;;3.30;76.69
68456;BME280;55437;55.046;38.838;2022-11-23T11:36:33;98950.44;;;3.31;76.57
68456;BME280;55437;55.046;38.838;2022-11-23T11:39:08;98950.41;;;3.32;76.51
68456;BME280;55437;55.046;38.838;2022-11-23T11:41:38;98949.44;;;3.39;76.29
68456;BME280;55437;55.046;38.838;2022-11-23T11:44:15;98949.31;;;3.47;76.34
68456;BME280;55437;55.046;38.838;2022-11-23T11:46:42;98954.59;;;3.36;76.33
68456;BME280;55437;55.046;38.838;2022-11-23T11:49:27;98950.34;;;3.37;76.20
68456;BME280;55437;55.046;38.838;2022-11-23T11:52:04;98963.88;;;3.37;76.13
68456;BME280;55437;55.046;38.838;2022-11-23T11:57:28;98974.94;;;3.33;76.00
68456;BME280;55437;55.046;38.838;2022-11-23T11:59:59;98969.00;;;3.33;75.90
68456;BME280;55437;55.046;38.838;2022-11-23T12:02:27;98962.25;;;3.32;76.31
68456;BME280;55437;55.046;38.838;2022-11-23T12:05:34;98977.44;;;3.35;76.47
68456;BME280;55437;55.046;38.838;2022-11-23T12:08:12;98980.03;;;3.30;76.43
68456;BME280;55437;55.046;38.838;2022-11-23T12:11:04;98984.31;;;3.26;76.38
68456;BME280;55437;55.046;38.838;2022-11-23T12:13:33;98989.69;;;3.08;76.86
68456;BME280;55437;55.046;38.838;2022-11-23T12:17:05;98999.03;;;3.05;76.86
68456;BME280;55437;55.046;38.838;2022-11-23T12:21:56;99006.44;;;3.18;76.76
68456;BME280;55437;55.046;38.838;2022-11-23T12:43:30;99035.81;;;3.33;76.19
68456;BME280;55437;55.046;38.838;2022-11-23T12:48:44;99039.38;;;3.23;76.44
68456;BME280;55437;55.046;38.838;2022-11-23T12:54:19;99053.88;;;3.13;76.86
68456;BME280;55437;55.046;38.838;2022-11-23T12:57:09;99058.97;;;3.12;76.83
68456;BME280;55437;55.046;38.838;2022-11-23T13:00:01;99057.22;;;3.15;77.08
68456;BME280;55437;55.046;38.838;2022-11-23T13:21:45;99068.56;;;2.90;77.20
68456;BME280;55437;55.046;38.838;2022-11-23T13:24:29;99075.38;;;2.88;77.29
68456;BME280;55437;55.046;38.838;2022-11-23T13:35:19;99079.69;;;2.80;77.60
68456;BME280;55437;55.046;38.838;2022-11-23T13:42:50;99094.00;;;2.84;77.49
68456;BME280;55437;55.046;38.838;2022-11-23T13:50:36;99103.13;;;2.99;77.25
68456;BME280;55437;55.046;38.838;2022-11-23T13:53:24;99103.13;;;2.97;77.09
68456;BME280;55437;55.046;38.838;2022-11-23T13:55:57;99104.84;;;2.95;76.93
68456;BME280;55437;55.046;38.838;2022-11-23T14:00:51;99104.81;;;2.97;77.03
68456;BME280;55437;55.046;38.838;2022-11-23T14:09:08;99116.66;;;2.96;77.04
68456;BME280;55437;55.046;38.838;2022-11-23T14:12:01;99107.25;;;3.03;76.84
68456;BME280;55437;55.046;38.838;2022-11-23T14:14:30;99118.25;;;3.03;77.10
68456;BME280;55437;55.046;38.838;2022-11-23T14:28:42;99127.84;;;2.80;76.81
68456;BME280;55437;55.046;38.838;2022-11-23T14:31:25;99123.59;;;2.83;76.97
68456;BME280;55437;55.046;38.838;2022-11-23T14:34:07;99126.91;;;2.88;76.88
68456;BME280;55437;55.046;38.838;2022-11-23T14:37:03;99131.16;;;2.86;76.79
68456;BME280;55437;55.046;38.838;2022-11-23T14:39:40;99133.84;;;2.74;76.97
68456;BME280;55437;55.046;38.838;2022-11-23T14:42:14;99138.88;;;2.77;76.84
68456;BME280;55437;55.046;38.838;2022-11-23T14:44:41;99138.81;;;2.82;77.08
68456;BME280;55437;55.046;38.838;2022-11-23T14:47:11;99142.91;;;2.90;77.01
68456;BME280;55437;55.046;38.838;2022-11-23T14:49:48;99140.50;;;2.83;76.92
68456;BME280;55437;55.046;38.838;2022-11-23T14:52:34;99154.84;;;2.85;77.01
68456;BME280;55437;55.046;38.838;2022-11-23T14:55:04;99152.28;;;2.88;76.66
68456;BME280;55437;55.046;38.838;2022-11-23T14:57:41;99159.91;;;2.85;76.67
68456;BME280;55437;55.046;38.838;2022-11-23T15:03:00;99168.19;;;3.01;76.71
68456;BME280;55437;55.046;38.838;2022-11-23T15:05:31;99170.78;;;2.95;76.51
68456;BME280;55437;55.046;38.838;2022-11-23T15:08:14;99171.72;;;2.86;76.32
68456;BME280;55437;55.046;38.838;2022-11-23T15:13:30;99173.44;;;2.84;76.55
68456;BME280;55437;55.046;38.838;2022-11-23T15:15:57;99185.16;;;2.92;76.35
68456;BME280;55437;55.046;38.838;2022-11-23T15:18:27;99184.41;;;2.86;76.26
68456;BME280;55437;55.046;38.838;2022-11-23T15:20:53;99181.00;;;2.89;76.28